Aviation Digital Data Service (ADDS)

Output produced by METARs form (0130 UTC 20 January 2022)
found at http://www.aviationweather.gov/metar/data/
 
METAR text: WSSL 200100Z 01004KT 270V050 9999 FEW018 BKN280 27/23 Q1011
Conditions at: WSSL (SINGAPORE/SELETA, SG) observed 0100 UTC 20 January 2022
Temperature: 27.0°C (81°F)
Dewpoint: 23.0°C (73°F) [RH = 79%]
Pressure (altimeter): 29.85 inches Hg (1011.0 mb)
Winds: from the N (10 degrees) at 5 MPH (4 knots; 2.1 m/s)
Visibility: 6 or more miles (10+ km)
Ceiling: 28000 feet AGL
Clouds: few clouds at 1800 feet AGL
broken clouds at 28000 feet AGL
Weather: no significant weather observed at this time

Forecast for: WSSL (SINGAPORE/SELETA, SG)
Text: TAF WSSL 192300Z 2000/2106 01010KT 9999 FEW015 SCT020
Forecast period: 0000 UTC 20 January 2022 to 0600 UTC 21 January 2022
Forecast type: FROM: standard forecast or significant change
Winds: from the N (10 degrees) at 12 MPH (10 knots; 5.1 m/s)
Visibility: 6 or more miles (10+ km)
Ceiling: at least 12,000 feet AGL
Clouds: few clouds at 1500 feet AGL
scattered clouds at 2000 feet AGL
Weather: no significant weather forecast for this period